Time;durP1;ratioP1;P1;durP2;ratioP2;P2;SDS_P1;SDS_P2;PMS_P1;PMS_P2;Temp;Humidity;BMP_temperature;BMP_pressure;BME280_temperature;BME280_humidity;BME280_pressure;Samples;Min_cycle;Max_cycle;Signal;HPM_P1;HPM_P2
2022/03/14 00:00:28;;;;;;;;;;;;;;;-145.18;100.00;47215.19;4933559;29;19926;-66
2022/03/14 00:02:54;;;;;;;;;;;;;;;-145.18;100.00;47215.19;4932833;29;19950;-66
2022/03/14 00:05:20;;;;;;;;;;;;;;;-145.18;100.00;47156.56;4933116;29;19922;-66
2022/03/14 00:07:46;;;;;;;;;;;;;;;-145.18;100.00;46988.56;4932814;29;19973;-66
2022/03/14 00:10:18;;;;;;;;;;;;;;;-145.18;100.00;46982.72;4933126;29;19925;-66
2022/03/14 00:12:44;;;;;;;;;;;;;;;-145.18;100.00;46933.88;4932779;29;19932;-66
2022/03/14 00:15:13;;;;;;;;;;;;;;;-145.18;100.00;46896.75;4932844;29;20013;-66
2022/03/14 00:17:40;;;;;;;;;;;;;;;-145.18;100.00;46910.44;4932723;29;19923;-66
2022/03/14 00:20:07;;;;;;;;;;;;;;;-145.18;100.00;46875.28;4932523;29;20810;-66
2022/03/14 00:22:32;;;;;;;;;;;;;;;-145.18;100.00;46855.72;4932661;29;19925;-66
2022/03/14 00:24:58;;;;;;;;;;;;;;;-145.18;100.00;46803.00;4932759;29;20287;-67
2022/03/14 00:27:23;;;;;;;;;;;;;;;-145.18;100.00;46777.59;4931927;29;19965;-67
2022/03/14 00:29:48;;;;;;;;;;;;;;;-145.18;100.00;46763.91;4916383;29;19918;-67
2022/03/14 00:32:13;;;;;;;;;;;;;;;-145.18;100.00;46730.72;4932163;29;19922;-67
2022/03/14 00:34:39;;;;;;;;;;;;;;;-145.18;100.00;46726.81;4932897;29;19926;-67
2022/03/14 00:37:04;;;;;;;;;;;;;;;-145.18;100.00;46738.53;4932076;29;19914;-67
2022/03/14 00:39:29;;;;;;;;;;;;;;;-145.18;100.00;46695.56;4932540;29;20504;-66
2022/03/14 00:41:54;;;;;;;;;;;;;;;-145.18;100.00;46687.75;4931978;29;20435;-66
2022/03/14 00:44:20;;;;;;;;;;;;;;;-145.18;100.00;46672.13;4933227;29;19923;-66
2022/03/14 00:46:45;;;;;;;;;;;;;;;-145.18;100.00;46666.25;4932335;29;19923;-67
2022/03/14 00:49:11;;;;;;;;;;;;;;;-145.18;100.00;46660.41;4932428;29;20299;-67
2022/03/14 00:51:36;;;;;;;;;;;;;;;-145.18;100.00;46664.31;4914692;29;19922;-66
2022/03/14 00:54:02;;;;;;;;;;;;;;;-145.18;100.00;46676.03;4915195;29;19919;-66
2022/03/14 00:56:28;;;;;;;;;;;;;;;-145.18;100.00;46658.44;4931847;29;19919;-66
2022/03/14 00:58:54;;;;;;;;;;;;;;;-145.18;100.00;46664.31;4932735;29;19926;-66
2022/03/14 01:01:21;;;;;;;;;;;;;;;-145.18;100.00;46660.41;4931668;29;20025;-66
2022/03/14 01:03:46;;;;;;;;;;;;;;;-145.18;100.00;46670.16;4931504;29;20009;-67
2022/03/14 01:06:11;;;;;;;;;;;;;;;-145.18;100.00;46676.03;4932075;29;19951;-66
2022/03/14 01:08:36;;;;;;;;;;;;;;;-145.18;100.00;46662.34;4931783;29;20018;-66
2022/03/14 01:11:02;;;;;;;;;;;;;;;-145.18;100.00;46664.31;4931697;29;19918;-66
2022/03/14 01:13:27;;;;;;;;;;;;;;;-145.18;100.00;46658.44;4932341;29;19926;-66
2022/03/14 01:15:53;;;;;;;;;;;;;;;-145.18;100.00;46666.25;4931564;29;19927;-66
2022/03/14 01:18:18;;;;;;;;;;;;;;;-145.18;100.00;46679.94;4931625;29;19976;-66
2022/03/14 01:20:43;;;;;;;;;;;;;;;-145.18;100.00;46672.13;4931538;29;19949;-66
2022/03/14 01:23:09;;;;;;;;;;;;;;;-145.18;100.00;46660.41;4931122;29;19978;-66
2022/03/14 01:25:34;;;;;;;;;;;;;;;-145.18;100.00;46654.53;4931874;29;20009;-66
2022/03/14 01:27:59;;;;;;;;;;;;;;;-145.18;100.00;46658.44;4931583;29;19923;-67
2022/03/14 01:30:24;;;;;;;;;;;;;;;-145.18;100.00;46648.69;4931797;29;19918;-66
2022/03/14 01:32:50;;;;;;;;;;;;;;;-145.18;100.00;46654.53;4913860;29;19928;-66
2022/03/14 01:35:17;;;;;;;;;;;;;;;-145.18;100.00;46664.31;4931835;29;19926;-66
2022/03/14 01:37:43;;;;;;;;;;;;;;;-145.18;100.00;46658.44;4930423;29;19922;-66
2022/03/14 01:40:09;;;;;;;;;;;;;;;-145.18;100.00;46640.88;4931125;29;19927;-66
2022/03/14 01:42:35;;;;;;;;;;;;;;;-145.18;100.00;46636.94;4930843;29;19922;-66
2022/03/14 01:45:01;;;;;;;;;;;;;;;-145.18;100.00;46627.19;4932222;29;19919;-66
2022/03/14 01:47:28;;;;;;;;;;;;;;;-145.18;100.00;46627.19;4931125;29;19919;-66
2022/03/14 01:49:53;;;;;;;;;;;;;;;-145.18;100.00;46621.31;4930985;29;20674;-66
2022/03/14 01:52:20;;;;;;;;;;;;;;;-145.18;100.00;46605.69;4930935;29;19926;-66
2022/03/14 01:54:45;;;;;;;;;;;;;;;-145.18;100.00;46588.13;4931279;29;19982;-66
2022/03/14 01:57:13;;;;;;;;;;;;;;;-145.18;100.00;46590.06;4931058;29;19918;-66
2022/03/14 01:59:38;;;;;;;;;;;;;;;-145.18;100.00;46593.97;4931310;29;19972;-66
2022/03/14 02:02:04;;;;;;;;;;;;;;;-145.18;100.00;46611.56;5200625;23;19930;-66
2022/03/14 02:04:30;;;;;;;;;;;;;;;-145.18;100.00;46599.84;4926453;28;20383;-66
2022/03/14 02:06:57;;;;;;;;;;;;;;;-145.18;100.00;46613.50;4931181;29;19968;-66
2022/03/14 02:09:22;;;;;;;;;;;;;;;-145.18;100.00;46599.84;4930644;29;19927;-66
2022/03/14 02:11:52;;;;;;;;;;;;;;;-145.18;100.00;46605.69;4930852;29;20407;-66
2022/03/14 02:14:18;;;;;;;;;;;;;;;-145.18;100.00;46601.78;4930596;29;19978;-66
2022/03/14 02:16:43;;;;;;;;;;;;;;;-145.18;100.00;46609.59;4931959;29;19923;-66
2022/03/14 02:19:08;;;;;;;;;;;;;;;-145.18;100.00;46597.88;4930449;29;19922;-66
2022/03/14 02:21:33;;;;;;;;;;;;;;;-145.18;100.00;46599.84;4931084;29;19926;-66
2022/03/14 02:24:01;;;;;;;;;;;;;;;-145.18;100.00;46601.78;4930313;29;19973;-66
2022/03/14 02:26:26;;;;;;;;;;;;;;;-145.18;100.00;46615.47;4930781;29;20382;-66
2022/03/14 02:28:51;;;;;;;;;;;;;;;-145.18;100.00;46592.03;4930500;29;20070;-66
2022/03/14 02:31:16;;;;;;;;;;;;;;;-145.18;100.00;46584.22;4930610;29;20450;-66
2022/03/14 02:33:42;;;;;;;;;;;;;;;-145.18;100.00;46578.34;4931103;29;19919;-66
2022/03/14 02:36:07;;;;;;;;;;;;;;;-145.18;100.00;46578.34;4930601;29;19938;-66
2022/03/14 02:38:32;;;;;;;;;;;;;;;-145.18;100.00;46590.06;4930426;29;19922;-66
2022/03/14 02:40:58;;;;;;;;;;;;;;;-145.18;100.00;46590.06;4930277;29;19919;-66
2022/03/14 02:43:24;;;;;;;;;;;;;;;-145.18;100.00;46566.63;4930807;29;19922;-66
2022/03/14 02:45:51;;;;;;;;;;;;;;;-145.18;100.00;46570.53;4930891;29;19922;-66
2022/03/14 02:48:16;;;;;;;;;;;;;;;-145.18;100.00;46570.53;4930435;29;19928;-66
2022/03/14 02:50:43;;;;;;;;;;;;;;;-145.18;100.00;46558.81;4930458;29;19919;-66
2022/03/14 02:53:13;;;;;;;;;;;;;;;-145.18;100.00;46566.63;4929798;29;19919;-66
2022/03/14 02:55:39;;;;;;;;;;;;;;;-145.18;100.00;46572.50;4930684;29;19919;-66
2022/03/14 02:58:04;;;;;;;;;;;;;;;-145.18;100.00;46580.31;4930190;29;19941;-66
2022/03/14 03:00:30;;;;;;;;;;;;;;;-145.18;100.00;46558.81;4913605;29;20291;-66
2022/03/14 03:02:56;;;;;;;;;;;;;;;-145.18;100.00;46558.81;4943336;28;19926;-66
2022/03/14 03:05:21;;;;;;;;;;;;;;;-145.18;100.00;46558.81;4949315;28;19926;-66
2022/03/14 03:07:49;;;;;;;;;;;;;;;-145.18;100.00;46558.81;4949660;28;19918;-66
2022/03/14 03:10:23;;;;;;;;;;;;;;;-145.18;100.00;46556.88;4949058;28;19919;-66
2022/03/14 03:12:48;;;;;;;;;;;;;;;-145.18;100.00;46552.97;4949111;28;19966;-66
2022/03/14 03:15:15;;;;;;;;;;;;;;;-145.18;100.00;46554.91;4932139;28;19927;-66
2022/03/14 03:17:41;;;;;;;;;;;;;;;-145.18;100.00;46560.78;4949259;28;19993;-66
2022/03/14 03:20:07;;;;;;;;;;;;;;;-145.18;100.00;46558.81;4949314;28;20356;-66
2022/03/14 03:22:32;;;;;;;;;;;;;;;-145.18;100.00;46554.91;4949236;28;19922;-66
2022/03/14 03:24:57;;;;;;;;;;;;;;;-145.18;100.00;46554.91;4949446;28;19997;-66
2022/03/14 03:27:23;;;;;;;;;;;;;;;-145.18;100.00;46547.09;4949072;28;19961;-66
2022/03/14 03:29:48;;;;;;;;;;;;;;;-145.18;100.00;46558.81;4949589;28;19958;-66
2022/03/14 03:32:13;;;;;;;;;;;;;;;-145.18;100.00;46551.00;4948433;28;20366;-66
2022/03/14 03:34:38;;;;;;;;;;;;;;;-145.18;100.00;46558.81;4932097;28;19938;-66
2022/03/14 03:37:04;;;;;;;;;;;;;;;-145.18;100.00;46545.16;4949108;28;20013;-66
2022/03/14 03:39:30;;;;;;;;;;;;;;;-145.18;100.00;46547.09;4949346;28;19937;-66
2022/03/14 03:41:55;;;;;;;;;;;;;;;-145.18;100.00;46560.78;4949768;28;19925;-66
2022/03/14 03:44:21;;;;;;;;;;;;;;;-145.18;100.00;46615.47;4948634;28;19923;-66
2022/03/14 03:46:46;;;;;;;;;;;;;;;-145.18;100.00;46642.81;4949074;28;20302;-67
2022/03/14 03:49:11;;;;;;;;;;;;;;;-145.18;100.00;46679.94;4947226;28;19929;-66
2022/03/14 03:51:37;;;;;;;;;;;;;;;-145.18;100.00;46658.44;4930825;28;20310;-66
2022/03/14 03:54:02;;;;;;;;;;;;;;;-145.18;100.00;46660.41;4948102;28;20374;-67
2022/03/14 03:56:27;;;;;;;;;;;;;;;-145.18;100.00;46662.34;4949784;28;19925;-67
2022/03/14 03:58:52;;;;;;;;;;;;;;;-145.18;100.00;46666.25;4948840;28;19925;-66
2022/03/14 04:01:23;;;;;;;;;;;;;;;-145.18;100.00;46666.25;4949338;28;20309;-67
2022/03/14 04:03:54;;;;;;;;;;;;;;;-145.18;100.00;46672.13;4951888;28;19922;-66
2022/03/14 04:06:20;;;;;;;;;;;;;;;-145.18;100.00;46668.22;4952546;28;19930;-66
2022/03/14 04:08:46;;;;;;;;;;;;;;;-145.18;100.00;46664.31;4952328;28;19919;-67
2022/03/14 04:11:11;;;;;;;;;;;;;;;-145.18;100.00;46674.06;4952284;28;19930;-67
2022/03/14 04:13:36;;;;;;;;;;;;;;;-145.18;100.00;46668.22;4951482;28;19923;-67
2022/03/14 04:16:01;;;;;;;;;;;;;;;-145.18;100.00;46666.25;4952669;28;19986;-67
2022/03/14 04:18:27;;;;;;;;;;;;;;;-145.18;100.00;46674.06;4951978;28;19914;-67
2022/03/14 04:20:53;;;;;;;;;;;;;;;-145.18;100.00;46674.06;4952325;28;19950;-67
2022/03/14 04:23:19;;;;;;;;;;;;;;;-145.18;100.00;46672.13;4951532;28;19922;-67
2022/03/14 04:25:45;;;;;;;;;;;;;;;-145.18;100.00;46662.34;4951945;28;20367;-68
2022/03/14 04:28:14;;;;;;;;;;;;;;;-145.18;100.00;46664.31;4951546;28;19925;-67
2022/03/14 04:30:39;;;;;;;;;;;;;;;-145.18;100.00;46662.34;4952180;28;19926;-67
2022/03/14 04:33:05;;;;;;;;;;;;;;;-145.18;100.00;46668.22;4951761;28;20294;-67
2022/03/14 04:35:31;;;;;;;;;;;;;;;-145.18;100.00;46662.34;4952115;28;19926;-66
2022/03/14 04:37:56;;;;;;;;;;;;;;;-145.18;100.00;46662.34;4951434;28;20260;-67
2022/03/14 04:40:22;;;;;;;;;;;;;;;-145.18;100.00;46664.31;4951533;28;19922;-67
2022/03/14 04:42:47;;;;;;;;;;;;;;;-145.18;100.00;46660.41;4951524;28;19933;-67
2022/03/14 04:45:12;;;;;;;;;;;;;;;-145.18;100.00;46664.31;4951670;28;19919;-67
2022/03/14 04:47:38;;;;;;;;;;;;;;;-145.18;100.00;46664.31;4951988;28;19977;-66
2022/03/14 04:50:04;;;;;;;;;;;;;;;-145.18;100.00;46658.44;4951587;28;19964;-67
2022/03/14 04:52:29;;;;;;;;;;;;;;;-145.18;100.00;46660.41;4951307;28;19933;-66
2022/03/14 04:54:55;;;;;;;;;;;;;;;-145.18;100.00;46662.34;4951310;28;19966;-67
2022/03/14 04:57:20;;;;;;;;;;;;;;;-145.18;100.00;46660.41;4934159;28;20085;-66
2022/03/14 04:59:45;;;;;;;;;;;;;;;-145.18;100.00;46664.31;4951607;28;19970;-67
2022/03/14 05:02:10;;;;;;;;;;;;;;;-145.18;100.00;46658.44;4951152;28;19918;-66
2022/03/14 05:04:37;;;;;;;;;;;;;;;-145.18;100.00;46664.31;4951502;28;19930;-67
2022/03/14 05:07:02;;;;;;;;;;;;;;;-145.18;100.00;46658.44;4934011;28;20336;-67
2022/03/14 05:09:27;;;;;;;;;;;;;;;-145.18;100.00;46658.44;4951037;28;19965;-67
2022/03/14 05:11:52;;;;;;;;;;;;;;;-145.18;100.00;46662.34;4951312;28;20041;-67
2022/03/14 05:14:18;;;;;;;;;;;;;;;-145.18;100.00;46660.41;4950352;28;20347;-66
2022/03/14 05:16:43;;;;;;;;;;;;;;;-145.18;100.00;46656.50;4951358;28;20299;-66
2022/03/14 05:19:09;;;;;;;;;;;;;;;-145.18;100.00;46662.34;4934218;29;19953;-67
2022/03/14 05:21:34;;;;;;;;;;;;;;;-145.18;100.00;46654.53;4939985;28;20306;-66
2022/03/14 05:23:59;;;;;;;;;;;;;;;-145.18;100.00;46654.53;4933722;28;19926;-66
2022/03/14 05:26:25;;;;;;;;;;;;;;;-145.18;100.00;46652.59;4931703;29;20288;-66
2022/03/14 05:28:50;;;;;;;;;;;;;;;-145.18;100.00;46660.41;4931909;29;20336;-66
2022/03/14 05:31:17;;;;;;;;;;;;;;;-145.18;100.00;46658.44;4931705;29;19919;-66
2022/03/14 05:33:42;;;;;;;;;;;;;;;-145.18;100.00;46660.41;4931340;29;19925;-66
2022/03/14 05:36:07;;;;;;;;;;;;;;;-145.18;100.00;46658.44;4931657;29;20388;-66
2022/03/14 05:38:33;;;;;;;;;;;;;;;-145.18;100.00;46658.44;4931204;29;20013;-66
2022/03/14 05:40:58;;;;;;;;;;;;;;;-145.18;100.00;46654.53;4931704;29;20363;-66
2022/03/14 05:43:25;;;;;;;;;;;;;;;-145.18;100.00;46652.59;4930924;29;20376;-66
2022/03/14 05:45:51;;;;;;;;;;;;;;;-145.18;100.00;46660.41;4931541;29;19918;-66
2022/03/14 05:48:16;;;;;;;;;;;;;;;-145.18;100.00;46662.34;4931455;29;19923;-66
2022/03/14 05:50:42;;;;;;;;;;;;;;;-145.18;100.00;46656.50;4931265;29;20001;-66
2022/03/14 05:53:07;;;;;;;;;;;;;;;-145.18;100.00;46662.34;4930350;29;19954;-66
2022/03/14 05:55:32;;;;;;;;;;;;;;;-145.18;100.00;46652.59;4931339;29;19919;-66
2022/03/14 05:57:58;;;;;;;;;;;;;;;-145.18;100.00;46654.53;4930855;29;19918;-66
2022/03/14 06:00:24;;;;;;;;;;;;;;;-145.18;100.00;46658.44;4931415;29;20006;-66
2022/03/14 06:02:51;;;;;;;;;;;;;;;-145.18;100.00;46656.50;4913295;29;20009;-66
2022/03/14 06:05:21;;;;;;;;;;;;;;;-145.18;100.00;46652.59;4931606;29;19930;-66
2022/03/14 06:07:46;;;;;;;;;;;;;;;-145.18;100.00;46648.69;4930992;29;19941;-66
2022/03/14 06:10:13;;;;;;;;;;;;;;;-145.18;100.00;46650.63;4930350;29;20399;-66
2022/03/14 06:12:39;;;;;;;;;;;;;;;-145.18;100.00;46646.72;4930524;29;19945;-66
2022/03/14 06:15:05;;;;;;;;;;;;;;;-145.18;100.00;46652.59;4930714;29;20359;-66
2022/03/14 06:17:30;;;;;;;;;;;;;;;-145.18;100.00;46648.69;4931195;29;19997;-66
2022/03/14 06:19:55;;;;;;;;;;;;;;;-145.18;100.00;46652.59;4930338;29;19962;-66
2022/03/14 06:22:22;;;;;;;;;;;;;;;-145.18;100.00;46652.59;4931075;29;20281;-66
2022/03/14 06:24:48;;;;;;;;;;;;;;;-145.18;100.00;46650.63;4930164;29;20383;-66
2022/03/14 06:27:14;;;;;;;;;;;;;;;-145.18;100.00;46650.63;4930634;29;19942;-67
2022/03/14 06:29:39;;;;;;;;;;;;;;;-145.18;100.00;46650.63;4930529;29;19978;-66
2022/03/14 06:32:05;;;;;;;;;;;;;;;-145.18;100.00;46644.78;4930581;29;19962;-66
2022/03/14 06:34:30;;;;;;;;;;;;;;;-145.18;100.00;46648.69;4930007;29;19923;-66
2022/03/14 06:36:56;;;;;;;;;;;;;;;-145.18;100.00;46656.50;4931245;29;19923;-66
2022/03/14 06:39:21;;;;;;;;;;;;;;;-145.18;100.00;46648.69;4930241;29;19919;-66
2022/03/14 06:41:47;;;;;;;;;;;;;;;-145.18;100.00;46646.72;4930720;29;19978;-66
2022/03/14 06:44:13;;;;;;;;;;;;;;;-145.18;100.00;46652.59;4930277;29;20327;-66
2022/03/14 06:46:39;;;;;;;;;;;;;;;-145.18;100.00;46638.91;4930602;29;19918;-66
2022/03/14 06:49:04;;;;;;;;;;;;;;;-145.18;100.00;46650.63;4930029;29;19923;-66
2022/03/14 06:51:29;;;;;;;;;;;;;;;-145.18;100.00;46646.72;4934971;28;19962;-66
2022/03/14 06:53:55;;;;;;;;;;;;;;;-145.18;100.00;46644.78;4930117;29;20025;-66
2022/03/14 06:56:21;;;;;;;;;;;;;;;-145.18;100.00;46650.63;4938267;29;19933;-66
2022/03/14 06:58:46;;;;;;;;;;;;;;;-145.18;100.00;46646.72;4948560;28;19953;-67
2022/03/14 07:01:12;;;;;;;;;;;;;;;-145.18;100.00;46644.78;4936991;28;19976;-66
2022/03/14 07:03:37;;;;;;;;;;;;;;;-145.18;100.00;46646.72;4944768;28;19926;-66
2022/03/14 07:06:02;;;;;;;;;;;;;;;-145.18;100.00;46650.63;4940302;28;19918;-66
2022/03/14 07:08:28;;;;;;;;;;;;;;;-145.18;100.00;46650.63;4949403;28;20391;-66
2022/03/14 07:10:54;;;;;;;;;;;;;;;-145.18;100.00;46646.72;4948874;28;19922;-66
2022/03/14 07:13:19;;;;;;;;;;;;;;;-145.18;100.00;46644.78;4948194;28;20383;-66
2022/03/14 07:15:44;;;;;;;;;;;;;;;-145.18;100.00;46650.63;4949511;28;19926;-66
2022/03/14 07:18:11;;;;;;;;;;;;;;;-145.18;100.00;46646.72;4947763;28;19929;-66
2022/03/14 07:20:36;;;;;;;;;;;;;;;-145.18;100.00;46644.78;4949387;28;19918;-66
2022/03/14 07:23:02;;;;;;;;;;;;;;;-145.18;100.00;46642.81;4945865;28;19937;-66
2022/03/14 07:25:29;;;;;;;;;;;;;;;-145.18;100.00;46644.78;4944390;28;19922;-66
2022/03/14 07:27:56;;;;;;;;;;;;;;;-145.18;100.00;46642.81;4948893;29;19926;-66
2022/03/14 07:30:22;;;;;;;;;;;;;;;-145.18;100.00;46644.78;4947393;28;19919;-66
2022/03/14 07:32:47;;;;;;;;;;;;;;;-145.18;100.00;46638.91;4942258;28;19925;-66
2022/03/14 07:35:13;;;;;;;;;;;;;;;-145.18;100.00;46640.88;4948370;28;19918;-66
2022/03/14 07:37:39;;;;;;;;;;;;;;;-145.18;100.00;46638.91;4952061;28;19996;-66
2022/03/14 07:40:06;;;;;;;;;;;;;;;-145.18;100.00;46636.94;4952982;28;19918;-66
2022/03/14 07:42:31;;;;;;;;;;;;;;;-145.18;100.00;46633.06;4952468;28;20375;-66
2022/03/14 07:44:56;;;;;;;;;;;;;;;-145.18;100.00;46635.00;4951792;28;19926;-66
2022/03/14 07:47:23;;;;;;;;;;;;;;;-145.18;100.00;46633.06;4952781;28;20012;-66
2022/03/14 07:49:48;;;;;;;;;;;;;;;-145.18;100.00;46629.13;4934952;28;20405;-66
2022/03/14 07:52:14;;;;;;;;;;;;;;;-145.18;100.00;46627.19;4952300;28;19957;-66
2022/03/14 07:54:39;;;;;;;;;;;;;;;-145.18;100.00;46627.19;4952193;28;19925;-66
2022/03/14 07:57:04;;;;;;;;;;;;;;;-145.18;100.00;46635.00;4953055;28;19919;-66
2022/03/14 07:59:29;;;;;;;;;;;;;;;-145.18;100.00;46633.06;4935160;28;20290;-66
2022/03/14 08:01:55;;;;;;;;;;;;;;;-145.18;100.00;46629.13;4952198;28;19922;-66
2022/03/14 08:04:22;;;;;;;;;;;;;;;-145.18;100.00;46625.22;4934205;28;19922;-66
2022/03/14 08:06:48;;;;;;;;;;;;;;;-145.18;100.00;46627.19;4952457;28;19925;-66
2022/03/14 08:09:13;;;;;;;;;;;;;;;-145.18;100.00;46627.19;4951701;28;20013;-66
2022/03/14 08:11:38;;;;;;;;;;;;;;;-145.18;100.00;46627.19;4952718;28;19918;-66
2022/03/14 08:14:07;;;;;;;;;;;;;;;-145.18;100.00;46625.22;4951711;28;19919;-66
2022/03/14 08:16:32;;;;;;;;;;;;;;;-145.18;100.00;46621.31;4952072;28;19930;-66
2022/03/14 08:18:58;;;;;;;;;;;;;;;-145.18;100.00;46623.28;4951706;28;20295;-66
2022/03/14 08:21:23;;;;;;;;;;;;;;;-145.18;100.00;46621.31;4951912;28;20472;-66
2022/03/14 08:23:49;;;;;;;;;;;;;;;-145.18;100.00;46619.38;4951345;28;19918;-66
2022/03/14 08:26:15;;;;;;;;;;;;;;;-145.18;100.00;46615.47;4951067;28;20033;-66
2022/03/14 08:28:41;;;;;;;;;;;;;;;-145.18;100.00;46613.50;4952033;28;20017;-66
2022/03/14 08:31:06;;;;;;;;;;;;;;;-145.18;100.00;46599.84;4933064;29;19961;-66
2022/03/14 08:33:32;;;;;;;;;;;;;;;-145.18;100.00;46584.22;4951380;28;19926;-66
2022/03/14 08:36:00;;;;;;;;;;;;;;;-145.18;100.00;46597.88;4951616;28;20026;-66
2022/03/14 08:38:26;;;;;;;;;;;;;;;-145.18;100.00;46590.06;4951310;28;19922;-66
2022/03/14 08:40:51;;;;;;;;;;;;;;;-145.18;100.00;46586.16;4951399;28;19923;-66
2022/03/14 08:43:16;;;;;;;;;;;;;;;-145.18;100.00;46590.06;4950813;28;19919;-66
2022/03/14 08:45:43;;;;;;;;;;;;;;;-145.18;100.00;46595.94;4950812;28;19925;-67
2022/03/14 08:48:09;;;;;;;;;;;;;;;-145.18;100.00;46580.31;4950686;28;19979;-66
2022/03/14 08:50:35;;;;;;;;;;;;;;;-145.18;100.00;46576.41;4951605;28;19922;-66
2022/03/14 08:53:00;;;;;;;;;;;;;;;-145.18;100.00;46570.53;4951657;28;19960;-66
2022/03/14 08:55:26;;;;;;;;;;;;;;;-145.18;100.00;46574.44;4950780;28;19918;-66
2022/03/14 08:57:51;;;;;;;;;;;;;;;-145.18;100.00;46582.25;4951531;28;19922;-66
2022/03/14 09:00:17;;;;;;;;;;;;;;;-145.18;100.00;46597.88;4951174;28;19952;-66
2022/03/14 09:02:43;;;;;;;;;;;;;;;-145.18;100.00;46574.44;4950974;28;20027;-66
2022/03/14 09:05:09;;;;;;;;;;;;;;;-145.18;100.00;46580.31;4950784;28;20005;-66
2022/03/14 09:07:34;;;;;;;;;;;;;;;-145.18;100.00;46588.13;4950107;28;20001;-66
2022/03/14 09:10:01;;;;;;;;;;;;;;;-145.18;100.00;46582.25;4950492;28;19925;-66
2022/03/14 09:12:26;;;;;;;;;;;;;;;-145.18;100.00;46570.53;4950966;28;20502;-66
2022/03/14 09:14:51;;;;;;;;;;;;;;;-145.18;100.00;46564.69;4949988;28;19952;-66
2022/03/14 09:17:16;;;;;;;;;;;;;;;-145.18;100.00;46562.72;4951033;28;19977;-66
2022/03/14 09:19:42;;;;;;;;;;;;;;;-145.18;100.00;46552.97;4950728;28;19922;-66
2022/03/14 09:22:09;;;;;;;;;;;;;;;-145.18;100.00;46539.28;4950418;28;19964;-66
2022/03/14 09:24:36;;;;;;;;;;;;;;;-145.18;100.00;46535.38;4950468;28;19926;-66
2022/03/14 09:27:02;;;;;;;;;;;;;;;-145.18;100.00;46535.38;4950442;28;19925;-66
2022/03/14 09:29:27;;;;;;;;;;;;;;;-145.18;100.00;46535.38;4950363;28;20371;-66
2022/03/14 09:31:53;;;;;;;;;;;;;;;-145.18;100.00;46535.38;4951307;28;20433;-66
2022/03/14 09:34:18;;;;;;;;;;;;;;;-145.18;100.00;46515.84;4949846;28;19922;-66
2022/03/14 09:36:43;;;;;;;;;;;;;;;-145.18;100.00;46517.81;4950966;28;19949;-66
2022/03/14 09:39:12;;;;;;;;;;;;;;;-145.18;100.00;46510.00;4950193;28;19918;-66
2022/03/14 09:41:39;;;;;;;;;;;;;;;-145.18;100.00;46508.03;4950241;28;19928;-66
2022/03/14 09:44:07;;;;;;;;;;;;;;;-145.18;100.00;46508.03;4950362;28;19918;-66
2022/03/14 09:46:36;;;;;;;;;;;;;;;-145.18;100.00;46511.94;4950698;28;19927;-66
2022/03/14 09:49:01;;;;;;;;;;;;;;;-145.18;100.00;46508.03;4949836;28;19919;-66
2022/03/14 09:51:27;;;;;;;;;;;;;;;-145.18;100.00;46510.00;4950120;28;19918;-66
2022/03/14 09:53:52;;;;;;;;;;;;;;;-145.18;100.00;46515.84;4950336;28;20014;-66
2022/03/14 09:56:18;;;;;;;;;;;;;;;-145.18;100.00;46517.81;4949963;28;19930;-66
2022/03/14 09:58:44;;;;;;;;;;;;;;;-145.18;100.00;46513.91;4949571;28;19918;-66
2022/03/14 10:01:10;;;;;;;;;;;;;;;-145.18;100.00;46519.75;4949841;28;19923;-66
2022/03/14 10:03:36;;;;;;;;;;;;;;;-145.18;100.00;46523.66;4949419;28;19933;-66
2022/03/14 10:06:01;;;;;;;;;;;;;;;-145.18;100.00;46525.63;4932670;28;19933;-66
2022/03/14 10:08:26;;;;;;;;;;;;;;;-145.18;100.00;46531.47;4950175;28;19922;-67
2022/03/14 10:10:52;;;;;;;;;;;;;;;-145.18;100.00;46525.63;4950143;28;19965;-66
2022/03/14 10:13:17;;;;;;;;;;;;;;;-145.18;100.00;46525.63;4949781;28;19929;-66
2022/03/14 10:15:42;;;;;;;;;;;;;;;-145.18;100.00;46523.66;4949371;28;19930;-67
2022/03/14 10:18:10;;;;;;;;;;;;;;;-145.18;100.00;46531.47;4949863;28;19926;-66
2022/03/14 10:20:35;;;;;;;;;;;;;;;-145.18;100.00;46543.19;4948731;28;19926;-66
2022/03/14 10:23:01;;;;;;;;;;;;;;;-145.18;100.00;46527.56;4950738;28;19929;-66
2022/03/14 10:25:28;;;;;;;;;;;;;;;-145.18;100.00;46529.53;4949612;28;19930;-66
2022/03/14 10:27:57;;;;;;;;;;;;;;;-145.18;100.00;46537.34;4949082;28;20009;-68
2022/03/14 10:30:25;;;;;;;;;;;;;;;-145.18;100.00;46533.44;4949136;28;19927;-66
2022/03/14 10:32:56;;;;;;;;;;;;;;;-145.18;100.00;46535.38;4950007;28;19924;-66
2022/03/14 10:35:21;;;;;;;;;;;;;;;-145.18;100.00;46539.28;4949041;28;19966;-66
2022/03/14 10:38:01;;;;;;;;;;;;;;;-145.18;100.00;46541.25;4949645;28;20342;-66
2022/03/14 10:40:31;;;;;;;;;;;;;;;-145.18;100.00;46539.28;4949175;28;20005;-66
2022/03/14 10:42:56;;;;;;;;;;;;;;;-145.18;100.00;46527.56;4949674;28;19918;-66
2022/03/14 10:45:21;;;;;;;;;;;;;;;-145.18;100.00;46537.34;4948815;28;19928;-66
2022/03/14 10:47:52;;;;;;;;;;;;;;;-145.18;100.00;46533.44;4949997;28;20366;-66
2022/03/14 10:50:46;;;;;;;;;;;;;;;-145.18;100.00;46541.25;4948636;28;19926;-66
2022/03/14 10:53:12;;;;;;;;;;;;;;;-145.18;100.00;46539.28;4940608;28;19929;-66
2022/03/14 10:55:41;;;;;;;;;;;;;;;-145.18;100.00;46535.38;4948555;28;19930;-66
2022/03/14 10:58:10;;;;;;;;;;;;;;;-145.18;100.00;46537.34;4949703;28;19922;-66
2022/03/14 11:00:49;;;;;;;;;;;;;;;-145.18;100.00;46543.19;4948834;28;19922;-66
2022/03/14 11:03:22;;;;;;;;;;;;;;;-145.18;100.00;46541.25;4948612;28;19926;-66
2022/03/14 11:05:47;;;;;;;;;;;;;;;-145.18;100.00;46549.06;4948460;28;19922;-66
2022/03/14 11:08:27;;;;;;;;;;;;;;;-145.18;100.00;46537.34;4949089;28;19969;-66
2022/03/14 11:10:53;;;;;;;;;;;;;;;-145.18;100.00;46551.00;4950566;28;19965;-66
2022/03/14 11:13:19;;;;;;;;;;;;;;;-145.18;100.00;46547.09;4952953;28;19961;-66
2022/03/14 11:15:45;;;;;;;;;;;;;;;-145.18;100.00;46552.97;4952404;28;20434;-66
2022/03/14 11:18:10;;;;;;;;;;;;;;;-145.18;100.00;46556.88;4951700;28;19925;-66
2022/03/14 11:20:35;;;;;;;;;;;;;;;-145.18;100.00;46556.88;4935066;29;19945;-66
2022/03/14 11:23:00;;;;;;;;;;;;;;;-145.18;100.00;46556.88;4953018;29;19919;-66
2022/03/14 11:25:26;;;;;;;;;;;;;;;-145.18;100.00;46560.78;4952837;29;19922;-66
2022/03/14 11:27:54;;;;;;;;;;;;;;;-145.18;100.00;46556.88;4953030;29;20302;-66
2022/03/14 11:30:19;;;;;;;;;;;;;;;-145.18;100.00;46558.81;4952288;29;19929;-66
2022/03/14 11:32:44;;;;;;;;;;;;;;;-145.18;100.00;46564.69;4952969;29;20005;-66
2022/03/14 11:35:10;;;;;;;;;;;;;;;-145.18;100.00;46556.88;4951810;29;20391;-66
2022/03/14 11:37:36;;;;;;;;;;;;;;;-145.18;100.00;46533.44;4952876;29;19969;-66
2022/03/14 11:40:03;;;;;;;;;;;;;;;-145.18;100.00;46556.88;4952979;29;19922;-66
2022/03/14 11:42:30;;;;;;;;;;;;;;;-145.18;100.00;46547.09;4952584;29;19942;-66
2022/03/14 11:44:55;;;;;;;;;;;;;;;-145.18;100.00;46529.53;4952375;29;19927;-66
2022/03/14 11:47:21;;;;;;;;;;;;;;;-145.18;100.00;46541.25;4952233;29;20283;-67
2022/03/14 11:49:47;;;;;;;;;;;;;;;-145.18;100.00;46525.63;4952040;29;19926;-66
2022/03/14 11:52:13;;;;;;;;;;;;;;;-145.18;100.00;46552.97;4952328;29;19926;-66
2022/03/14 11:54:44;;;;;;;;;;;;;;;-145.18;100.00;46551.00;4951830;29;20005;-66
2022/03/14 11:57:09;;;;;;;;;;;;;;;-145.18;100.00;46551.00;4951957;29;19925;-66
2022/03/14 11:59:36;;;;;;;;;;;;;;;-145.18;100.00;46570.53;4952625;29;19926;-66
2022/03/14 12:02:03;;;;;;;;;;;;;;;-145.18;100.00;46549.06;4951050;28;19922;-66
2022/03/14 12:04:28;;;;;;;;;;;;;;;-145.18;100.00;46566.63;4950309;28;20016;-66
2022/03/14 12:07:00;;;;;;;;;;;;;;;-145.18;100.00;46576.41;4952283;28;20008;-67
2022/03/14 12:09:26;;;;;;;;;;;;;;;-145.18;100.00;46549.06;4951803;28;20369;-66
2022/03/14 12:11:55;;;;;;;;;;;;;;;-145.18;100.00;46517.81;4931162;29;19989;-66